createdAt,value
2023-12-09T00:02:14.611Z,24.70
2023-12-09T00:05:18.123Z,11.40
2023-12-09T00:08:20.641Z,10.30
2023-12-09T00:11:22.854Z,9.90
2023-12-09T00:17:29.037Z,8.00
2023-12-09T00:23:34.283Z,10.23
2023-12-09T00:26:36.602Z,10.23
2023-12-09T00:29:38.679Z,8.55
2023-12-09T00:32:40.774Z,8.80
2023-12-09T00:38:48.408Z,8.10
2023-12-09T00:41:50.990Z,9.48
2023-12-09T00:44:53.296Z,8.13
2023-12-09T00:47:55.976Z,9.18
2023-12-09T00:51:01.987Z,7.65
2023-12-09T00:54:04.303Z,8.30
2023-12-09T00:57:06.665Z,7.75
2023-12-09T01:00:10.206Z,8.73
2023-12-09T01:03:12.529Z,10.55
2023-12-09T01:06:17.402Z,10.27
2023-12-09T01:09:19.901Z,8.25
2023-12-09T01:15:24.980Z,8.63
2023-12-09T01:18:27.314Z,8.18
2023-12-09T01:21:31.516Z,9.15
2023-12-09T01:24:37.221Z,9.15
2023-12-09T01:27:39.625Z,7.80
2023-12-09T01:33:43.921Z,7.72
2023-12-09T01:36:48.461Z,8.30
2023-12-09T01:39:50.714Z,8.50
2023-12-09T01:42:52.996Z,8.30
2023-12-09T01:46:01.269Z,7.75
2023-12-09T01:49:05.296Z,8.38
2023-12-09T01:52:12.387Z,7.32
2023-12-09T01:55:15.510Z,6.90
2023-12-09T01:58:19.830Z,8.88
2023-12-09T02:01:22.258Z,8.18
2023-12-09T02:04:25.600Z,7.70
2023-12-09T02:07:29.713Z,7.78
2023-12-09T02:10:31.950Z,7.68
2023-12-09T02:13:41.153Z,7.20
2023-12-09T02:16:49.678Z,6.70
2023-12-09T02:19:52.537Z,8.00
2023-12-09T02:23:08.263Z,7.88
2023-12-09T02:26:18.186Z,7.63
2023-12-09T02:29:23.123Z,8.20
2023-12-09T02:32:29.993Z,7.63
2023-12-09T02:35:36.902Z,7.05
2023-12-09T02:38:42.938Z,7.47
2023-12-09T02:41:47.511Z,7.55
2023-12-09T02:44:50.617Z,6.97
2023-12-09T02:47:52.988Z,7.78
2023-12-09T02:50:55.726Z,7.72
2023-12-09T02:53:59.330Z,7.38
2023-12-09T02:57:01.910Z,7.82
2023-12-09T03:00:07.869Z,7.50
2023-12-09T03:03:10.295Z,7.80
2023-12-09T03:06:13.055Z,7.35
2023-12-09T03:09:17.035Z,7.22
2023-12-09T03:12:21.821Z,6.90
2023-12-09T03:15:24.368Z,7.32
2023-12-09T03:18:26.754Z,7.53
2023-12-09T03:21:33.550Z,6.75
2023-12-09T03:24:37.628Z,6.85
2023-12-09T03:27:40.782Z,6.57
2023-12-09T03:30:43.160Z,5.78
2023-12-09T03:33:45.741Z,6.25
2023-12-09T03:36:48.465Z,5.97
2023-12-09T03:39:52.321Z,6.97
2023-12-09T03:42:54.671Z,6.65
2023-12-09T03:46:00.459Z,6.13
2023-12-09T03:49:02.826Z,6.05
2023-12-09T03:52:05.622Z,5.38
2023-12-09T03:55:10.680Z,5.93
2023-12-09T03:58:13.280Z,6.70
2023-12-09T04:01:17.397Z,5.65
2023-12-09T04:04:20.058Z,6.40
2023-12-09T04:07:22.199Z,6.00
2023-12-09T04:13:28.494Z,6.05
2023-12-09T04:16:30.994Z,5.80
2023-12-09T04:19:34.210Z,6.30
2023-12-09T04:22:38.755Z,5.97
2023-12-09T04:25:42.773Z,5.72
2023-12-09T04:28:45.161Z,5.63
2023-12-09T04:31:47.876Z,5.65
2023-12-09T04:34:53.306Z,5.32
2023-12-09T04:37:55.620Z,4.93
2023-12-09T04:40:59.296Z,5.65
2023-12-09T04:44:01.591Z,5.65
2023-12-09T04:47:07.703Z,4.93
2023-12-09T04:50:12.453Z,5.85
2023-12-09T04:53:15.089Z,5.55
2023-12-09T04:56:19.007Z,5.38
2023-12-09T04:59:21.546Z,5.10
2023-12-09T05:02:32.971Z,5.32
2023-12-09T05:05:35.571Z,6.20
2023-12-09T05:08:40.357Z,5.22
2023-12-09T05:11:46.321Z,4.95
2023-12-09T05:14:49.008Z,5.68
2023-12-09T05:17:51.444Z,5.00
2023-12-09T05:20:55.148Z,5.13
2023-12-09T05:23:57.655Z,5.15
2023-12-09T05:27:02.326Z,5.30
2023-12-09T05:30:05.595Z,5.03
2023-12-09T05:33:08.528Z,5.35
2023-12-09T05:36:11.436Z,4.85
2023-12-09T05:39:13.649Z,5.55
2023-12-09T05:45:19.650Z,5.53
2023-12-09T05:48:22.020Z,5.60
2023-12-09T05:51:24.838Z,5.13
2023-12-09T05:54:32.744Z,5.50
2023-12-09T05:57:36.722Z,5.65
2023-12-09T06:00:39.066Z,5.72
2023-12-09T06:03:44.096Z,5.13
2023-12-09T06:06:46.700Z,5.25
2023-12-09T06:09:49.419Z,6.22
2023-12-09T06:12:53.021Z,6.10
2023-12-09T06:15:56.443Z,6.75
2023-12-09T06:18:58.910Z,6.05
2023-12-09T06:22:01.103Z,6.38
2023-12-09T06:28:11.459Z,6.15
2023-12-09T06:31:13.827Z,5.93
2023-12-09T06:34:18.243Z,5.32
2023-12-09T06:37:21.138Z,6.55
2023-12-09T06:40:26.423Z,5.90
2023-12-09T06:43:30.053Z,6.10
2023-12-09T06:46:32.662Z,5.82
2023-12-09T06:49:34.935Z,5.95
2023-12-09T06:52:37.259Z,6.68
2023-12-09T06:55:42.343Z,6.20
2023-12-09T06:58:46.510Z,5.60
2023-12-09T07:01:51.525Z,5.28
2023-12-09T07:04:54.179Z,5.68
2023-12-09T07:07:56.770Z,5.82
2023-12-09T07:11:10.043Z,6.25
2023-12-09T07:14:16.626Z,5.78
2023-12-09T07:17:19.595Z,6.13
2023-12-09T07:20:22.093Z,7.03
2023-12-09T07:23:36.262Z,6.70
2023-12-09T07:26:38.749Z,6.63
2023-12-09T07:29:45.877Z,6.85
2023-12-09T07:32:48.461Z,6.65
2023-12-09T07:35:51.582Z,7.10
2023-12-09T07:38:56.998Z,7.05
2023-12-09T07:42:02.892Z,7.07
2023-12-09T07:45:10.657Z,7.30
2023-12-09T07:48:13.058Z,6.97
2023-12-09T07:51:15.468Z,5.65
2023-12-09T07:54:49.701Z,6.18
2023-12-09T07:57:54.919Z,6.45
2023-12-09T08:01:11.662Z,6.75
2023-12-09T08:04:22.394Z,5.72
2023-12-09T08:07:28.639Z,5.85
2023-12-09T08:10:31.802Z,5.75
2023-12-09T08:13:35.138Z,8.93
2023-12-09T08:16:39.721Z,8.45
2023-12-09T08:19:46.081Z,9.40
2023-12-09T08:22:48.761Z,7.40
2023-12-09T08:25:51.167Z,7.25
2023-12-09T08:28:53.840Z,8.68
2023-12-09T08:31:58.494Z,10.82
2023-12-09T08:35:07.496Z,9.48
2023-12-09T08:38:12.534Z,8.20
2023-12-09T08:41:14.794Z,8.43
2023-12-09T08:44:19.183Z,10.20
2023-12-09T08:47:25.332Z,11.35
2023-12-09T08:50:28.918Z,6.15
2023-12-09T08:53:31.942Z,6.63
2023-12-09T08:56:34.198Z,6.32
2023-12-09T08:59:36.576Z,7.45
2023-12-09T09:02:40.394Z,5.97
2023-12-09T09:05:43.763Z,5.35
2023-12-09T09:08:45.970Z,5.95
2023-12-09T09:14:50.431Z,5.38
2023-12-09T09:17:57.704Z,4.57
2023-12-09T09:21:00.455Z,3.80
2023-12-09T09:24:05.088Z,3.88
2023-12-09T09:27:07.747Z,3.58
2023-12-09T09:30:10.687Z,4.75
2023-12-09T09:33:15.909Z,4.40
2023-12-09T09:36:19.179Z,4.40
2023-12-09T09:39:22.372Z,4.97
2023-12-09T09:42:30.847Z,7.07
2023-12-09T09:45:36.706Z,5.45
2023-12-09T09:48:44.940Z,5.90
2023-12-09T09:51:54.317Z,4.70
2023-12-09T09:54:58.449Z,7.35
2023-12-09T09:58:01.271Z,6.90
2023-12-09T10:01:07.007Z,5.38
2023-12-09T10:04:11.004Z,4.57
2023-12-09T10:07:14.110Z,4.60
2023-12-09T10:10:18.241Z,12.55
2023-12-09T10:13:20.979Z,5.40
2023-12-09T10:16:23.704Z,11.43
2023-12-09T10:19:27.921Z,11.63
2023-12-09T10:22:30.556Z,5.03
2023-12-09T10:25:33.090Z,6.80
2023-12-09T10:28:35.418Z,5.28
2023-12-09T10:31:37.857Z,6.60
2023-12-09T10:34:42.492Z,6.00
2023-12-09T10:37:45.100Z,4.60
2023-12-09T10:40:47.396Z,4.85
2023-12-09T10:43:49.704Z,7.38
2023-12-09T10:46:55.747Z,5.35
2023-12-09T10:50:00.564Z,8.25
2023-12-09T10:53:03.397Z,5.47
2023-12-09T10:56:09.650Z,6.20
2023-12-09T10:59:15.270Z,5.10
2023-12-09T11:02:39.581Z,4.40
2023-12-09T11:05:49.019Z,5.35
2023-12-09T11:08:52.469Z,3.80
2023-12-09T11:11:56.152Z,4.35
2023-12-09T11:15:06.500Z,4.35
2023-12-09T11:18:10.440Z,4.88
2023-12-09T11:21:15.686Z,4.18
2023-12-09T11:24:20.822Z,6.22
2023-12-09T11:27:26.558Z,4.20
2023-12-09T11:30:35.466Z,3.30
2023-12-09T11:33:38.478Z,4.03
2023-12-09T11:36:43.444Z,7.60
2023-12-09T11:39:46.506Z,4.88
2023-12-09T11:42:53.685Z,9.40
2023-12-09T11:45:56.436Z,14.18
2023-12-09T11:48:59.724Z,5.45
2023-12-09T11:52:06.725Z,3.90
2023-12-09T11:55:11.535Z,7.20
2023-12-09T11:58:13.976Z,4.28
2023-12-09T12:01:19.360Z,9.65
2023-12-09T12:04:21.623Z,4.65
2023-12-09T12:07:27.402Z,8.57
2023-12-09T12:10:35.928Z,9.32
2023-12-09T12:13:38.957Z,14.20
2023-12-09T12:16:46.781Z,5.38
2023-12-09T12:19:50.216Z,6.13
2023-12-09T12:22:55.345Z,6.70
2023-12-09T12:26:00.034Z,7.15
2023-12-09T12:29:05.378Z,5.10
2023-12-09T12:32:08.475Z,5.55
2023-12-09T12:35:12.319Z,4.65
2023-12-09T12:38:16.169Z,10.25
2023-12-09T12:41:19.453Z,3.90
2023-12-09T12:44:22.392Z,3.22
2023-12-09T12:47:24.659Z,4.97
2023-12-09T12:50:29.696Z,5.18
2023-12-09T12:53:33.511Z,3.17
2023-12-09T12:56:36.839Z,3.55
2023-12-09T12:59:39.874Z,4.07
2023-12-09T13:02:42.322Z,2.85
2023-12-09T13:05:47.077Z,3.22
2023-12-09T13:08:52.261Z,2.50
2023-12-09T13:11:54.486Z,2.67
2023-12-09T13:18:00.012Z,1.95
2023-12-09T13:21:03.206Z,3.03
2023-12-09T13:24:07.453Z,3.00
2023-12-09T13:27:10.101Z,2.47
2023-12-09T13:30:14.623Z,2.22
2023-12-09T13:33:17.147Z,2.42
2023-12-09T13:36:19.637Z,5.85
2023-12-09T13:39:27.740Z,3.55
2023-12-09T13:42:30.308Z,2.85
2023-12-09T13:45:37.484Z,2.63
2023-12-09T13:48:41.036Z,2.72
2023-12-09T13:51:43.510Z,3.38
2023-12-09T13:54:48.533Z,3.08
2023-12-09T13:57:51.337Z,3.75
2023-12-09T14:00:58.220Z,2.92
2023-12-09T14:04:00.669Z,3.40
2023-12-09T14:07:03.170Z,4.28
2023-12-09T14:10:10.135Z,3.30
2023-12-09T14:13:15.420Z,3.90
2023-12-09T14:19:30.160Z,4.93
2023-12-09T14:22:32.631Z,3.05
2023-12-09T14:25:36.606Z,3.20
2023-12-09T14:28:38.867Z,4.68
2023-12-09T14:31:41.413Z,21.00
2023-12-09T14:34:43.782Z,9.50
2023-12-09T14:37:51.972Z,3.17
2023-12-09T14:40:58.233Z,5.20
2023-12-09T14:44:06.102Z,7.28
2023-12-09T14:47:11.744Z,3.13
2023-12-09T14:50:14.347Z,6.90
2023-12-09T14:53:18.787Z,4.55
2023-12-09T14:56:27.659Z,3.85
2023-12-09T14:59:30.840Z,6.75
2023-12-09T15:02:41.333Z,28.70
2023-12-09T15:05:44.009Z,3.45
2023-12-09T15:08:46.547Z,4.15
2023-12-09T15:11:53.518Z,2.38
2023-12-09T15:15:02.069Z,2.23
2023-12-09T15:18:05.808Z,11.20
2023-12-09T15:21:08.833Z,2.80
2023-12-09T15:24:13.518Z,2.83
2023-12-09T15:27:17.348Z,2.38
2023-12-09T15:30:20.049Z,1.83
2023-12-09T15:33:22.663Z,5.05
2023-12-09T15:36:25.154Z,2.22
2023-12-09T15:39:40.983Z,2.85
2023-12-09T15:42:45.002Z,2.88
2023-12-09T15:45:47.615Z,2.50
2023-12-09T15:48:50.907Z,2.80
2023-12-09T15:51:55.124Z,3.42
2023-12-09T15:54:57.935Z,2.42
2023-12-09T15:58:01.665Z,2.20
2023-12-09T16:01:04.442Z,2.47
2023-12-09T16:04:06.900Z,2.08
2023-12-09T16:07:09.227Z,2.75
2023-12-09T16:10:13.303Z,1.77
2023-12-09T16:13:17.527Z,2.28
2023-12-09T16:16:21.406Z,3.13
2023-12-09T16:19:25.170Z,2.08
2023-12-09T16:22:28.045Z,2.00
2023-12-09T16:25:30.642Z,1.90
2023-12-09T16:28:34.518Z,2.20
2023-12-09T16:31:37.040Z,2.58
2023-12-09T16:34:39.755Z,2.80
2023-12-09T16:37:42.203Z,2.60
2023-12-09T16:40:46.176Z,3.28
2023-12-09T16:43:50.051Z,2.70
2023-12-09T16:46:53.069Z,2.63
2023-12-09T16:49:55.697Z,2.47
2023-12-09T16:53:02.157Z,2.80
2023-12-09T16:56:05.055Z,2.55
2023-12-09T16:59:11.948Z,3.00
2023-12-09T17:02:14.287Z,2.55
2023-12-09T17:05:17.429Z,1.83
2023-12-09T17:08:20.357Z,2.60
2023-12-09T17:11:23.954Z,2.20
2023-12-09T17:14:28.695Z,2.10
2023-12-09T17:17:31.471Z,1.98
2023-12-09T17:20:36.655Z,1.85
2023-12-09T17:23:41.784Z,2.35
2023-12-09T17:26:44.585Z,2.47
2023-12-09T17:29:48.515Z,1.73
2023-12-09T17:32:51.292Z,2.40
2023-12-09T17:35:53.983Z,1.85
2023-12-09T17:39:00.258Z,1.73
2023-12-09T17:42:02.491Z,2.45
2023-12-09T17:48:11.831Z,1.70
2023-12-09T17:51:17.024Z,2.38
2023-12-09T17:54:21.340Z,1.98
2023-12-09T17:57:23.600Z,1.63
2023-12-09T18:00:27.649Z,1.70
2023-12-09T18:03:34.244Z,2.08
2023-12-09T18:06:36.654Z,1.70
2023-12-09T18:09:39.307Z,1.80
2023-12-09T18:12:41.900Z,1.50
2023-12-09T18:15:46.186Z,1.83
2023-12-09T18:18:49.591Z,1.50
2023-12-09T18:21:53.016Z,1.40
2023-12-09T18:24:55.649Z,1.52
2023-12-09T18:27:58.533Z,1.45
2023-12-09T18:31:05.765Z,1.38
2023-12-09T18:34:08.920Z,1.70
2023-12-09T18:37:12.076Z,1.35
2023-12-09T18:40:15.817Z,1.60
2023-12-09T18:43:20.668Z,1.90
2023-12-09T18:46:25.972Z,1.38
2023-12-09T18:49:28.914Z,1.08
2023-12-09T18:52:32.544Z,1.27
2023-12-09T18:55:35.042Z,0.98
2023-12-09T18:58:37.401Z,0.93
2023-12-09T19:01:42.883Z,0.90
2023-12-09T19:04:46.781Z,0.80
2023-12-09T19:07:52.141Z,0.85
2023-12-09T19:10:59.052Z,1.13
2023-12-09T19:14:02.944Z,1.20
2023-12-09T19:17:13.740Z,0.90
2023-12-09T19:20:16.964Z,0.70
2023-12-09T19:23:22.873Z,0.95
2023-12-09T19:26:25.667Z,0.95
2023-12-09T19:29:28.412Z,1.30
2023-12-09T19:32:34.079Z,0.90
2023-12-09T19:35:36.887Z,0.70
2023-12-09T19:38:39.024Z,0.90
2023-12-09T19:47:48.481Z,1.00
2023-12-09T19:50:53.825Z,0.82
2023-12-09T19:53:56.344Z,0.70
2023-12-09T19:57:00.612Z,0.95
2023-12-09T20:00:03.263Z,0.93
2023-12-09T20:03:07.680Z,3.88
2023-12-09T20:06:10.007Z,3.00
2023-12-09T20:09:12.270Z,2.95
2023-12-09T20:12:14.434Z,1.58
2023-12-09T20:15:17.314Z,1.80
2023-12-09T20:18:20.905Z,1.75
2023-12-09T20:21:23.104Z,1.08
2023-12-09T20:27:29.492Z,3.70
2023-12-09T20:33:36.607Z,9.13
2023-12-09T20:36:39.035Z,1.70
2023-12-09T20:39:43.883Z,4.28
2023-12-09T20:42:49.100Z,18.95
2023-12-09T20:45:51.472Z,3.47
2023-12-09T20:48:55.033Z,1.10
2023-12-09T20:51:58.048Z,1.30
2023-12-09T20:55:00.416Z,0.65
2023-12-09T20:58:02.679Z,0.60
2023-12-09T21:01:11.817Z,0.32
2023-12-09T21:04:17.061Z,0.73
2023-12-09T21:07:19.320Z,0.63
2023-12-09T21:13:30.354Z,0.50
2023-12-09T21:16:32.928Z,0.50
2023-12-09T21:19:36.850Z,0.65
2023-12-09T21:22:39.874Z,0.60
2023-12-09T21:25:44.451Z,0.77
2023-12-09T21:31:49.308Z,0.47
2023-12-09T21:34:52.974Z,0.60
2023-12-09T21:37:54.980Z,0.70
2023-12-09T21:40:57.310Z,0.60
2023-12-09T21:43:59.598Z,0.60
2023-12-09T21:47:01.665Z,0.55
2023-12-09T21:53:08.962Z,0.60
2023-12-09T21:56:20.698Z,0.52
2023-12-09T21:59:22.879Z,0.60
2023-12-09T22:02:25.322Z,0.80
2023-12-09T22:05:34.696Z,0.63
2023-12-09T22:08:36.996Z,0.88
2023-12-09T22:14:40.752Z,0.93
2023-12-09T22:17:43.111Z,0.82
2023-12-09T22:20:46.764Z,1.33
2023-12-09T22:23:49.238Z,1.25
2023-12-09T22:26:51.388Z,0.85
2023-12-09T22:36:00.201Z,0.70
2023-12-09T22:39:02.276Z,0.90
2023-12-09T22:42:05.158Z,1.20
2023-12-09T22:45:08.370Z,1.73
2023-12-09T22:48:11.608Z,1.85
2023-12-09T22:51:19.195Z,2.17
2023-12-09T22:54:22.245Z,2.63
2023-12-09T22:57:24.212Z,3.17
2023-12-09T23:00:33.624Z,3.10
2023-12-09T23:03:36.208Z,3.95
2023-12-09T23:06:39.578Z,3.95
2023-12-09T23:09:42.088Z,5.20
2023-12-09T23:12:44.546Z,5.80
2023-12-09T23:15:46.696Z,5.50
2023-12-09T23:24:59.535Z,7.03
2023-12-09T23:28:02.393Z,7.32
2023-12-09T23:31:05.516Z,7.82
2023-12-09T23:34:09.012Z,6.57
2023-12-09T23:37:15.850Z,5.93
2023-12-09T23:40:21.009Z,5.97
2023-12-09T23:43:23.478Z,5.65
2023-12-09T23:46:26.224Z,5.30
2023-12-09T23:49:28.980Z,5.80
2023-12-09T23:52:35.655Z,4.95
2023-12-09T23:55:38.822Z,4.07
2023-12-09T23:58:43.224Z,4.38
